Rehoboth Beach, DE (19971)

6:20 PM EST on January 29, 2015 (GMT -0500)
Funland and the Boardwalk | Change Station
CLOSE
Current Station
Personal Weather Station
Location: Rehoboth Beach, DE
Elevation: 33 ft
Nearby Weather Stations

Elev 33 ft 38.71 °N, 75.08 °W | Updated 5 minutes ago

Overcast
Overcast
35.2 °F
Feels Like 29 °F
N
7.0
Wind Variable Wind from SSW
Gusts 12.0 mph

Today
High -- | Low -- °F
--% Chance of Precip.
Yesterday
High -- | Low -- °F
Precip. -- in
7:08 AM 5:18 PM
Waxing Gibbous, 78% visible
Pressure 30.13 in
Visibility 10.0 miles
Clouds Overcast 7500 ft
Windchill 29 °F
Dew Point 27 °F
Humidity 71%
Rainfall 0.00 in
Snow Depth Not available.
UV 0.0 out of 12
Pollen .10 out of 12
Air Quality Not available.
Flu Activity Not available.
METAR KGED 292254Z AUTO 16009KT 10SM OVC075 01/M08 A3013 RMK AO2 SLP203 T00111078

More Conditions Fewer Conditions

Pressure 30.13 in
Visibility 10.0 miles
Clouds Overcast 7500 ft
Windchill 29 °F
Dew Point 27 °F
Humidity 71%
Rainfall 0.00 in
Snow Depth Not available.
UV 0.0 out of 12
Pollen .10 out of 12
Air Quality Not available.
Flu Activity Not available.
METAR KGED 292254Z AUTO 16009KT 10SM OVC075 01/M08 A3013 RMK AO2 SLP203 T00111078

More Conditions Fewer Conditions

Nowcast | as of 6:07 PM EST on January 29, 2015

A mixture of snow and sleet is possible this evening as a band of showers moves towards the east across the Delmarva into southern New Jersey. Extreme southern Delmarva should remain plain rain with some sleet possibly mixing in. Current Road surface temperatures are reading in the mid- 30s along the Eastern Shore of Maryland into Delaware so we do not expect the snow and sleet to stick much other than on grassy surfaces. Minimal accumulations of less than an inch is expected this evening.

×

10-Day Weather Forecast

Almanac

Astronomy

Jan. 29, 2015 Rise Set
Actual Time
Civil Twilight
Nautical Twilight
Astronomical Twilight
Moon
Length of Visible Light
Length of Day
Tomorrow will be .
, % of the Moon is Illuminated

Today's Extremes

State Highs State Lows

Community

WunderPhotos

Upload Photos

1,791,640 photos uploaded!

WunderBlogs® & News

Nearby

Air Quality

  Air Quality AQ Index Pollutant
Not available.

Snow Depth

Station Depth Elevation

Earthquake Activity

City Distance Mag. Time & Date
Minimum magnitude displayed is 2.5.

Coastal Water Temperatures

Place Temperature

Nearby Weather Stations